sensor_id;sensor_type;location;lat;lon;timestamp;pressure;altitude;pressure_sealevel;temperature
62930;BMP280;49036;42.782;23.108;2023-02-20T00:01:38;94286.03;;;7.17
62930;BMP280;49036;42.782;23.108;2023-02-20T00:04:04;94286.25;;;7.12
62930;BMP280;49036;42.782;23.108;2023-02-20T00:06:29;94284.75;;;7.03
62930;BMP280;49036;42.782;23.108;2023-02-20T00:08:55;94291.78;;;6.96
62930;BMP280;49036;42.782;23.108;2023-02-20T00:11:20;94285.00;;;6.90
62930;BMP280;49036;42.782;23.108;2023-02-20T00:13:48;94285.91;;;6.85
62930;BMP280;49036;42.782;23.108;2023-02-20T00:16:13;94292.53;;;6.89
62930;BMP280;49036;42.782;23.108;2023-02-20T00:18:39;94276.38;;;6.78
62930;BMP280;49036;42.782;23.108;2023-02-20T00:21:05;94279.69;;;6.69
62930;BMP280;49036;42.782;23.108;2023-02-20T00:23:32;94275.47;;;6.68
62930;BMP280;49036;42.782;23.108;2023-02-20T00:25:58;94273.28;;;6.66
62930;BMP280;49036;42.782;23.108;2023-02-20T00:28:23;94259.09;;;6.62
62930;BMP280;49036;42.782;23.108;2023-02-20T00:30:50;94261.50;;;6.66
62930;BMP280;49036;42.782;23.108;2023-02-20T00:33:15;94254.16;;;6.53
62930;BMP280;49036;42.782;23.108;2023-02-20T00:35:41;94256.56;;;6.42
62930;BMP280;49036;42.782;23.108;2023-02-20T00:38:06;94270.50;;;6.36
62930;BMP280;49036;42.782;23.108;2023-02-20T00:40:32;94293.69;;;6.40
62930;BMP280;49036;42.782;23.108;2023-02-20T00:42:58;94287.78;;;6.44
62930;BMP280;49036;42.782;23.108;2023-02-20T00:45:23;94294.78;;;6.45
62930;BMP280;49036;42.782;23.108;2023-02-20T00:47:49;94301.41;;;6.42
62930;BMP280;49036;42.782;23.108;2023-02-20T00:50:16;94305.22;;;6.39
62930;BMP280;49036;42.782;23.108;2023-02-20T00:52:42;94309.09;;;6.36
62930;BMP280;49036;42.782;23.108;2023-02-20T00:55:07;94314.25;;;6.39
62930;BMP280;49036;42.782;23.108;2023-02-20T00:57:33;94315.88;;;6.58
62930;BMP280;49036;42.782;23.108;2023-02-20T00:59:59;94319.75;;;6.70
62930;BMP280;49036;42.782;23.108;2023-02-20T01:02:24;94312.78;;;6.77
62930;BMP280;49036;42.782;23.108;2023-02-20T01:04:50;94310.72;;;6.85
62930;BMP280;49036;42.782;23.108;2023-02-20T01:07:16;94315.69;;;6.94
62930;BMP280;49036;42.782;23.108;2023-02-20T01:09:41;94316.25;;;7.00
62930;BMP280;49036;42.782;23.108;2023-02-20T01:12:07;94321.34;;;7.04
62930;BMP280;49036;42.782;23.108;2023-02-20T01:14:33;94323.38;;;7.03
62930;BMP280;49036;42.782;23.108;2023-02-20T01:16:58;94320.84;;;7.05
62930;BMP280;49036;42.782;23.108;2023-02-20T01:19:24;94336.06;;;7.14
62930;BMP280;49036;42.782;23.108;2023-02-20T01:21:50;94336.81;;;7.14
62930;BMP280;49036;42.782;23.108;2023-02-20T01:24:16;94333.88;;;7.20
62930;BMP280;49036;42.782;23.108;2023-02-20T01:26:43;94335.34;;;7.21
62930;BMP280;49036;42.782;23.108;2023-02-20T01:29:09;94338.25;;;7.23
62930;BMP280;49036;42.782;23.108;2023-02-20T01:31:35;94332.56;;;7.21
62930;BMP280;49036;42.782;23.108;2023-02-20T01:34:01;94338.09;;;7.21
62930;BMP280;49036;42.782;23.108;2023-02-20T01:36:27;94327.97;;;7.16
62930;BMP280;49036;42.782;23.108;2023-02-20T01:38:53;94310.31;;;7.04
62930;BMP280;49036;42.782;23.108;2023-02-20T01:41:18;94338.16;;;6.98
62930;BMP280;49036;42.782;23.108;2023-02-20T01:43:44;94346.78;;;6.87
62930;BMP280;49036;42.782;23.108;2023-02-20T01:48:52;94342.94;;;6.67
62930;BMP280;49036;42.782;23.108;2023-02-20T01:51:18;94340.34;;;6.46
62930;BMP280;49036;42.782;23.108;2023-02-20T01:53:43;94339.22;;;6.26
62930;BMP280;49036;42.782;23.108;2023-02-20T01:56:10;94335.16;;;6.04
62930;BMP280;49036;42.782;23.108;2023-02-20T01:58:44;94343.00;;;5.85
62930;BMP280;49036;42.782;23.108;2023-02-20T02:01:11;94340.72;;;5.68
62930;BMP280;49036;42.782;23.108;2023-02-20T02:03:40;94339.94;;;5.60
62930;BMP280;49036;42.782;23.108;2023-02-20T02:06:08;94335.75;;;5.59
62930;BMP280;49036;42.782;23.108;2023-02-20T02:08:36;94339.50;;;5.48
62930;BMP280;49036;42.782;23.108;2023-02-20T02:11:05;94339.63;;;5.35
62930;BMP280;49036;42.782;23.108;2023-02-20T02:13:34;94338.88;;;5.27
62930;BMP280;49036;42.782;23.108;2023-02-20T02:16:19;94336.44;;;5.16
62930;BMP280;49036;42.782;23.108;2023-02-20T02:27:34;94365.81;;;4.72
62930;BMP280;49036;42.782;23.108;2023-02-20T02:35:58;94359.84;;;4.60
62930;BMP280;49036;42.782;23.108;2023-02-20T02:44:17;94357.38;;;4.70
62930;BMP280;49036;42.782;23.108;2023-02-20T02:51:58;94378.94;;;4.66
62930;BMP280;49036;42.782;23.108;2023-02-20T02:54:26;94381.09;;;4.59
62930;BMP280;49036;42.782;23.108;2023-02-20T02:57:23;94384.78;;;4.62
62930;BMP280;49036;42.782;23.108;2023-02-20T02:59:53;94387.88;;;4.58
62930;BMP280;49036;42.782;23.108;2023-02-20T03:02:22;94394.91;;;4.67
62930;BMP280;49036;42.782;23.108;2023-02-20T03:04:50;94390.28;;;4.62
62930;BMP280;49036;42.782;23.108;2023-02-20T03:07:16;94396.16;;;4.66
62930;BMP280;49036;42.782;23.108;2023-02-20T03:09:56;94393.84;;;4.70
62930;BMP280;49036;42.782;23.108;2023-02-20T03:12:25;94404.09;;;4.70
62930;BMP280;49036;42.782;23.108;2023-02-20T03:15:09;94387.59;;;4.70
62930;BMP280;49036;42.782;23.108;2023-02-20T03:20:59;94406.53;;;4.73
62930;BMP280;49036;42.782;23.108;2023-02-20T03:23:30;94411.81;;;4.71
62930;BMP280;49036;42.782;23.108;2023-02-20T03:26:01;94424.41;;;4.67
62930;BMP280;49036;42.782;23.108;2023-02-20T03:28:39;94425.66;;;4.66
62930;BMP280;49036;42.782;23.108;2023-02-20T03:31:14;94418.56;;;4.70
62930;BMP280;49036;42.782;23.108;2023-02-20T03:33:48;94406.75;;;4.62
62930;BMP280;49036;42.782;23.108;2023-02-20T03:39:24;94400.59;;;4.48
62930;BMP280;49036;42.782;23.108;2023-02-20T03:42:11;94414.53;;;4.50
62930;BMP280;49036;42.782;23.108;2023-02-20T03:44:57;94430.19;;;4.55
62930;BMP280;49036;42.782;23.108;2023-02-20T03:47:26;94430.84;;;4.69
62930;BMP280;49036;42.782;23.108;2023-02-20T03:49:53;94435.63;;;4.89
62930;BMP280;49036;42.782;23.108;2023-02-20T03:52:20;94438.41;;;4.97
62930;BMP280;49036;42.782;23.108;2023-02-20T03:54:46;94443.41;;;4.99
62930;BMP280;49036;42.782;23.108;2023-02-20T03:57:15;94444.88;;;5.00
62930;BMP280;49036;42.782;23.108;2023-02-20T03:59:47;94443.06;;;5.02
62930;BMP280;49036;42.782;23.108;2023-02-20T04:02:18;94443.09;;;5.10
62930;BMP280;49036;42.782;23.108;2023-02-20T04:04:47;94443.53;;;5.14
62930;BMP280;49036;42.782;23.108;2023-02-20T04:07:28;94445.19;;;5.17
62930;BMP280;49036;42.782;23.108;2023-02-20T04:09:58;94453.25;;;5.15
62930;BMP280;49036;42.782;23.108;2023-02-20T04:12:30;94455.00;;;5.05
62930;BMP280;49036;42.782;23.108;2023-02-20T04:14:57;94458.75;;;4.94
62930;BMP280;49036;42.782;23.108;2023-02-20T04:17:31;94446.34;;;4.80
62930;BMP280;49036;42.782;23.108;2023-02-20T04:19:58;94447.94;;;4.54
62930;BMP280;49036;42.782;23.108;2023-02-20T04:22:27;94445.44;;;4.43
62930;BMP280;49036;42.782;23.108;2023-02-20T04:24:59;94443.44;;;4.30
62930;BMP280;49036;42.782;23.108;2023-02-20T04:27:26;94419.78;;;4.27
62930;BMP280;49036;42.782;23.108;2023-02-20T04:29:52;94424.78;;;4.16
62930;BMP280;49036;42.782;23.108;2023-02-20T04:32:17;94435.28;;;4.04
62930;BMP280;49036;42.782;23.108;2023-02-20T04:34:43;94438.88;;;3.99
62930;BMP280;49036;42.782;23.108;2023-02-20T04:37:12;94457.47;;;3.93
62930;BMP280;49036;42.782;23.108;2023-02-20T04:39:37;94456.94;;;3.81
62930;BMP280;49036;42.782;23.108;2023-02-20T04:42:03;94463.16;;;3.82
62930;BMP280;49036;42.782;23.108;2023-02-20T04:44:28;94457.19;;;3.70
62930;BMP280;49036;42.782;23.108;2023-02-20T04:47:06;94457.69;;;3.68
62930;BMP280;49036;42.782;23.108;2023-02-20T04:49:33;94464.88;;;3.71
62930;BMP280;49036;42.782;23.108;2023-02-20T04:51:59;94462.94;;;3.80
62930;BMP280;49036;42.782;23.108;2023-02-20T04:54:24;94458.31;;;3.88
62930;BMP280;49036;42.782;23.108;2023-02-20T04:56:50;94455.56;;;3.88
62930;BMP280;49036;42.782;23.108;2023-02-20T04:59:16;94440.97;;;4.06
62930;BMP280;49036;42.782;23.108;2023-02-20T05:01:41;94444.66;;;3.95
62930;BMP280;49036;42.782;23.108;2023-02-20T05:04:13;94448.56;;;4.00
62930;BMP280;49036;42.782;23.108;2023-02-20T05:06:41;94446.25;;;4.04
62930;BMP280;49036;42.782;23.108;2023-02-20T05:09:07;94447.75;;;4.05
62930;BMP280;49036;42.782;23.108;2023-02-20T05:11:36;94440.53;;;4.02
62930;BMP280;49036;42.782;23.108;2023-02-20T05:14:02;94442.69;;;4.09
62930;BMP280;49036;42.782;23.108;2023-02-20T05:16:27;94444.69;;;4.09
62930;BMP280;49036;42.782;23.108;2023-02-20T05:18:53;94452.06;;;4.00
62930;BMP280;49036;42.782;23.108;2023-02-20T05:21:18;94455.63;;;3.95
62930;BMP280;49036;42.782;23.108;2023-02-20T05:24:02;94470.47;;;3.92
62930;BMP280;49036;42.782;23.108;2023-02-20T05:26:28;94460.22;;;3.93
62930;BMP280;49036;42.782;23.108;2023-02-20T05:28:53;94457.78;;;4.02
62930;BMP280;49036;42.782;23.108;2023-02-20T05:31:19;94462.06;;;4.11
62930;BMP280;49036;42.782;23.108;2023-02-20T05:33:44;94463.88;;;4.22
62930;BMP280;49036;42.782;23.108;2023-02-20T05:36:10;94478.81;;;4.34
62930;BMP280;49036;42.782;23.108;2023-02-20T05:38:35;94477.03;;;4.37
62930;BMP280;49036;42.782;23.108;2023-02-20T05:41:01;94470.91;;;4.44
62930;BMP280;49036;42.782;23.108;2023-02-20T05:43:26;94482.31;;;4.48
62930;BMP280;49036;42.782;23.108;2023-02-20T05:45:52;94491.56;;;4.58
62930;BMP280;49036;42.782;23.108;2023-02-20T05:48:17;94504.59;;;4.57
62930;BMP280;49036;42.782;23.108;2023-02-20T05:50:43;94509.53;;;4.59
62930;BMP280;49036;42.782;23.108;2023-02-20T05:53:08;94505.63;;;4.68
62930;BMP280;49036;42.782;23.108;2023-02-20T05:55:34;94504.75;;;4.73
62930;BMP280;49036;42.782;23.108;2023-02-20T05:57:59;94499.72;;;4.84
62930;BMP280;49036;42.782;23.108;2023-02-20T06:00:25;94508.47;;;4.96
62930;BMP280;49036;42.782;23.108;2023-02-20T06:02:50;94496.78;;;5.03
62930;BMP280;49036;42.782;23.108;2023-02-20T06:05:16;94501.41;;;5.08
62930;BMP280;49036;42.782;23.108;2023-02-20T06:07:43;94499.59;;;5.11
62930;BMP280;49036;42.782;23.108;2023-02-20T06:10:09;94501.09;;;5.12
62930;BMP280;49036;42.782;23.108;2023-02-20T06:12:34;94508.13;;;5.20
62930;BMP280;49036;42.782;23.108;2023-02-20T06:15:00;94510.06;;;5.33
62930;BMP280;49036;42.782;23.108;2023-02-20T06:17:25;94504.44;;;5.39
62930;BMP280;49036;42.782;23.108;2023-02-20T06:19:51;94512.34;;;5.42
62930;BMP280;49036;42.782;23.108;2023-02-20T06:22:16;94523.06;;;5.54
62930;BMP280;49036;42.782;23.108;2023-02-20T06:24:46;94535.41;;;5.60
62930;BMP280;49036;42.782;23.108;2023-02-20T06:27:12;94532.84;;;5.62
62930;BMP280;49036;42.782;23.108;2023-02-20T06:29:38;94532.72;;;5.68
62930;BMP280;49036;42.782;23.108;2023-02-20T06:32:04;94538.59;;;5.64
62930;BMP280;49036;42.782;23.108;2023-02-20T06:34:29;94549.38;;;5.62
62930;BMP280;49036;42.782;23.108;2023-02-20T06:36:58;94548.19;;;5.50
62930;BMP280;49036;42.782;23.108;2023-02-20T06:39:24;94562.13;;;5.44
62930;BMP280;49036;42.782;23.108;2023-02-20T06:41:49;94547.31;;;5.34
62930;BMP280;49036;42.782;23.108;2023-02-20T06:44:15;94564.19;;;5.31
62930;BMP280;49036;42.782;23.108;2023-02-20T06:46:40;94562.81;;;5.24
62930;BMP280;49036;42.782;23.108;2023-02-20T06:49:06;94561.13;;;5.21
62930;BMP280;49036;42.782;23.108;2023-02-20T06:51:32;94571.22;;;5.18
62930;BMP280;49036;42.782;23.108;2023-02-20T06:53:59;94579.56;;;5.26
62930;BMP280;49036;42.782;23.108;2023-02-20T06:56:27;94588.97;;;5.31
62930;BMP280;49036;42.782;23.108;2023-02-20T06:58:53;94600.72;;;5.31
62930;BMP280;49036;42.782;23.108;2023-02-20T07:01:21;94584.91;;;5.53
62930;BMP280;49036;42.782;23.108;2023-02-20T07:03:48;94601.56;;;5.68
62930;BMP280;49036;42.782;23.108;2023-02-20T07:06:15;94605.72;;;5.82
62930;BMP280;49036;42.782;23.108;2023-02-20T07:08:40;94597.72;;;5.92
62930;BMP280;49036;42.782;23.108;2023-02-20T07:11:06;94611.59;;;6.07
62930;BMP280;49036;42.782;23.108;2023-02-20T07:13:32;94611.16;;;5.95
62930;BMP280;49036;42.782;23.108;2023-02-20T07:15:57;94620.06;;;5.88
62930;BMP280;49036;42.782;23.108;2023-02-20T07:18:23;94612.72;;;5.83
62930;BMP280;49036;42.782;23.108;2023-02-20T07:20:53;94622.03;;;5.80
62930;BMP280;49036;42.782;23.108;2023-02-20T07:23:18;94619.09;;;5.78
62930;BMP280;49036;42.782;23.108;2023-02-20T07:25:44;94624.00;;;5.72
62930;BMP280;49036;42.782;23.108;2023-02-20T07:28:10;94635.69;;;5.65
62930;BMP280;49036;42.782;23.108;2023-02-20T07:30:36;94629.75;;;5.61
62930;BMP280;49036;42.782;23.108;2023-02-20T07:33:02;94625.72;;;5.62
62930;BMP280;49036;42.782;23.108;2023-02-20T07:35:27;94626.41;;;5.55
62930;BMP280;49036;42.782;23.108;2023-02-20T07:37:53;94625.69;;;5.54
62930;BMP280;49036;42.782;23.108;2023-02-20T07:40:18;94621.94;;;5.44
62930;BMP280;49036;42.782;23.108;2023-02-20T07:42:44;94635.47;;;5.42
62930;BMP280;49036;42.782;23.108;2023-02-20T07:45:10;94634.19;;;5.43
62930;BMP280;49036;42.782;23.108;2023-02-20T07:47:36;94647.56;;;5.60
62930;BMP280;49036;42.782;23.108;2023-02-20T07:50:02;94644.50;;;5.84
62930;BMP280;49036;42.782;23.108;2023-02-20T07:52:27;94633.44;;;6.05
62930;BMP280;49036;42.782;23.108;2023-02-20T07:54:53;94644.81;;;6.30
62930;BMP280;49036;42.782;23.108;2023-02-20T07:57:18;94626.06;;;6.64
62930;BMP280;49036;42.782;23.108;2023-02-20T07:59:44;94646.84;;;6.65
62930;BMP280;49036;42.782;23.108;2023-02-20T08:02:09;94634.97;;;6.78
62930;BMP280;49036;42.782;23.108;2023-02-20T08:04:35;94648.25;;;6.87
62930;BMP280;49036;42.782;23.108;2023-02-20T08:07:01;94651.25;;;7.05
62930;BMP280;49036;42.782;23.108;2023-02-20T08:09:26;94650.75;;;7.21
62930;BMP280;49036;42.782;23.108;2023-02-20T08:11:52;94655.91;;;7.17
62930;BMP280;49036;42.782;23.108;2023-02-20T08:14:17;94650.38;;;7.17
62930;BMP280;49036;42.782;23.108;2023-02-20T08:16:43;94664.72;;;7.23
62930;BMP280;49036;42.782;23.108;2023-02-20T08:19:08;94661.63;;;7.35
62930;BMP280;49036;42.782;23.108;2023-02-20T08:21:34;94644.31;;;7.26
62930;BMP280;49036;42.782;23.108;2023-02-20T08:23:59;94625.91;;;7.29
62930;BMP280;49036;42.782;23.108;2023-02-20T08:26:25;94647.25;;;7.28
62930;BMP280;49036;42.782;23.108;2023-02-20T08:28:51;94656.09;;;7.27
62930;BMP280;49036;42.782;23.108;2023-02-20T08:31:17;94637.00;;;7.44
62930;BMP280;49036;42.782;23.108;2023-02-20T08:33:42;94635.88;;;7.40
62930;BMP280;49036;42.782;23.108;2023-02-20T08:36:08;94639.03;;;7.44
62930;BMP280;49036;42.782;23.108;2023-02-20T08:38:36;94656.16;;;7.50
62930;BMP280;49036;42.782;23.108;2023-02-20T08:41:07;94641.63;;;7.57
62930;BMP280;49036;42.782;23.108;2023-02-20T08:43:34;94642.34;;;7.57
62930;BMP280;49036;42.782;23.108;2023-02-20T08:45:59;94641.44;;;7.63
62930;BMP280;49036;42.782;23.108;2023-02-20T08:48:25;94634.97;;;7.68
62930;BMP280;49036;42.782;23.108;2023-02-20T08:50:51;94630.38;;;7.85
62930;BMP280;49036;42.782;23.108;2023-02-20T08:53:16;94652.66;;;7.87
62930;BMP280;49036;42.782;23.108;2023-02-20T08:55:42;94647.69;;;8.09
62930;BMP280;49036;42.782;23.108;2023-02-20T08:58:08;94641.41;;;8.16
62930;BMP280;49036;42.782;23.108;2023-02-20T09:00:33;94632.50;;;8.33
62930;BMP280;49036;42.782;23.108;2023-02-20T09:02:59;94654.63;;;8.48
62930;BMP280;49036;42.782;23.108;2023-02-20T09:05:25;94622.56;;;8.37
62930;BMP280;49036;42.782;23.108;2023-02-20T09:07:50;94634.69;;;8.57
62930;BMP280;49036;42.782;23.108;2023-02-20T09:10:17;94626.69;;;8.69
62930;BMP280;49036;42.782;23.108;2023-02-20T09:12:43;94626.72;;;8.61
62930;BMP280;49036;42.782;23.108;2023-02-20T09:15:09;94632.91;;;8.92
62930;BMP280;49036;42.782;23.108;2023-02-20T09:17:35;94621.47;;;8.88
62930;BMP280;49036;42.782;23.108;2023-02-20T09:20:00;94618.84;;;8.98
62930;BMP280;49036;42.782;23.108;2023-02-20T09:22:26;94607.53;;;9.03
62930;BMP280;49036;42.782;23.108;2023-02-20T09:24:52;94605.28;;;8.85
62930;BMP280;49036;42.782;23.108;2023-02-20T09:27:18;94610.81;;;8.85
62930;BMP280;49036;42.782;23.108;2023-02-20T09:29:44;94607.94;;;9.00
62930;BMP280;49036;42.782;23.108;2023-02-20T09:32:10;94600.31;;;8.75
62930;BMP280;49036;42.782;23.108;2023-02-20T09:34:36;94612.41;;;8.88
62930;BMP280;49036;42.782;23.108;2023-02-20T09:37:01;94601.16;;;8.93
62930;BMP280;49036;42.782;23.108;2023-02-20T09:39:27;94604.25;;;8.97
62930;BMP280;49036;42.782;23.108;2023-02-20T09:47:29;94627.09;;;9.05
62930;BMP280;49036;42.782;23.108;2023-02-20T09:50:02;94618.75;;;9.13
62930;BMP280;49036;42.782;23.108;2023-02-20T09:52:29;94615.00;;;9.26
62930;BMP280;49036;42.782;23.108;2023-02-20T09:55:04;94621.53;;;9.45
62930;BMP280;49036;42.782;23.108;2023-02-20T09:57:35;94606.41;;;9.06
62930;BMP280;49036;42.782;23.108;2023-02-20T10:00:14;94615.31;;;9.30
62930;BMP280;49036;42.782;23.108;2023-02-20T10:02:49;94599.44;;;9.30
62930;BMP280;49036;42.782;23.108;2023-02-20T10:05:21;94604.16;;;9.45
62930;BMP280;49036;42.782;23.108;2023-02-20T10:07:49;94599.56;;;9.40
62930;BMP280;49036;42.782;23.108;2023-02-20T10:10:21;94596.22;;;9.66
62930;BMP280;49036;42.782;23.108;2023-02-20T10:21:17;94575.47;;;9.75
62930;BMP280;49036;42.782;23.108;2023-02-20T10:23:51;94587.16;;;10.08
62930;BMP280;49036;42.782;23.108;2023-02-20T10:26:31;94594.75;;;10.07
62930;BMP280;49036;42.782;23.108;2023-02-20T10:29:13;94590.75;;;10.18
62930;BMP280;49036;42.782;23.108;2023-02-20T10:31:44;94593.13;;;10.22
62930;BMP280;49036;42.782;23.108;2023-02-20T10:37:02;94593.66;;;10.37
62930;BMP280;49036;42.782;23.108;2023-02-20T10:39:31;94592.44;;;10.31
62930;BMP280;49036;42.782;23.108;2023-02-20T10:42:00;94591.84;;;10.50
62930;BMP280;49036;42.782;23.108;2023-02-20T10:44:47;94588.69;;;10.97
62930;BMP280;49036;42.782;23.108;2023-02-20T10:49:55;94578.47;;;11.00
62930;BMP280;49036;42.782;23.108;2023-02-20T10:52:30;94567.09;;;10.79
62930;BMP280;49036;42.782;23.108;2023-02-20T10:57:47;94577.63;;;11.07
62930;BMP280;49036;42.782;23.108;2023-02-20T11:00:28;94568.03;;;10.91
62930;BMP280;49036;42.782;23.108;2023-02-20T11:03:03;94560.88;;;11.24
62930;BMP280;49036;42.782;23.108;2023-02-20T11:05:35;94560.94;;;11.07
62930;BMP280;49036;42.782;23.108;2023-02-20T11:08:02;94554.25;;;11.56
62930;BMP280;49036;42.782;23.108;2023-02-20T11:10:28;94557.22;;;11.31
62930;BMP280;49036;42.782;23.108;2023-02-20T11:12:58;94547.09;;;11.63
62930;BMP280;49036;42.782;23.108;2023-02-20T11:15:32;94571.56;;;11.01
62930;BMP280;49036;42.782;23.108;2023-02-20T11:17:59;94570.00;;;10.81
62930;BMP280;49036;42.782;23.108;2023-02-20T11:22:56;94577.06;;;11.18
62930;BMP280;49036;42.782;23.108;2023-02-20T11:25:30;94566.75;;;11.38
62930;BMP280;49036;42.782;23.108;2023-02-20T11:30:44;94580.53;;;11.46
62930;BMP280;49036;42.782;23.108;2023-02-20T11:33:14;94565.16;;;12.10
62930;BMP280;49036;42.782;23.108;2023-02-20T11:35:43;94575.09;;;11.84
62930;BMP280;49036;42.782;23.108;2023-02-20T11:40:45;94569.50;;;11.75
62930;BMP280;49036;42.782;23.108;2023-02-20T11:43:21;94587.53;;;11.93
62930;BMP280;49036;42.782;23.108;2023-02-20T11:45:48;94580.13;;;11.49
62930;BMP280;49036;42.782;23.108;2023-02-20T11:48:14;94569.47;;;11.65
62930;BMP280;49036;42.782;23.108;2023-02-20T11:50:51;94569.75;;;11.50
62930;BMP280;49036;42.782;23.108;2023-02-20T11:53:22;94575.91;;;11.21
62930;BMP280;49036;42.782;23.108;2023-02-20T11:56:09;94567.34;;;12.02
62930;BMP280;49036;42.782;23.108;2023-02-20T11:58:35;94568.59;;;11.72
62930;BMP280;49036;42.782;23.108;2023-02-20T12:01:01;94563.38;;;11.95
62930;BMP280;49036;42.782;23.108;2023-02-20T12:03:27;94557.97;;;12.07
62930;BMP280;49036;42.782;23.108;2023-02-20T12:05:54;94563.09;;;12.11
62930;BMP280;49036;42.782;23.108;2023-02-20T12:08:33;94557.69;;;12.22
62930;BMP280;49036;42.782;23.108;2023-02-20T12:11:14;94555.47;;;11.82
62930;BMP280;49036;42.782;23.108;2023-02-20T12:13:42;94548.75;;;12.14
62930;BMP280;49036;42.782;23.108;2023-02-20T12:22:10;94560.50;;;11.47
62930;BMP280;49036;42.782;23.108;2023-02-20T12:27:44;94567.03;;;11.88
62930;BMP280;49036;42.782;23.108;2023-02-20T12:41:01;94547.44;;;11.96
62930;BMP280;49036;42.782;23.108;2023-02-20T12:46:30;94568.03;;;11.64
62930;BMP280;49036;42.782;23.108;2023-02-20T12:51:53;94533.91;;;11.73
62930;BMP280;49036;42.782;23.108;2023-02-20T13:01:52;94561.94;;;11.29
62930;BMP280;49036;42.782;23.108;2023-02-20T13:04:47;94561.44;;;11.23
62930;BMP280;49036;42.782;23.108;2023-02-20T13:07:30;94549.00;;;11.60
62930;BMP280;49036;42.782;23.108;2023-02-20T13:10:18;94541.69;;;11.19
62930;BMP280;49036;42.782;23.108;2023-02-20T13:12:45;94550.50;;;11.34
62930;BMP280;49036;42.782;23.108;2023-02-20T13:15:55;94538.44;;;11.49
62930;BMP280;49036;42.782;23.108;2023-02-20T13:20:55;94522.41;;;11.30
62930;BMP280;49036;42.782;23.108;2023-02-20T13:25:47;94536.91;;;11.39
62930;BMP280;49036;42.782;23.108;2023-02-20T13:33:30;94543.28;;;11.12
62930;BMP280;49036;42.782;23.108;2023-02-20T13:35:57;94553.00;;;11.30
62930;BMP280;49036;42.782;23.108;2023-02-20T13:38:24;94557.16;;;11.12
62930;BMP280;49036;42.782;23.108;2023-02-20T13:53:56;94566.56;;;10.11
62930;BMP280;49036;42.782;23.108;2023-02-20T13:59:08;94572.00;;;9.67
62930;BMP280;49036;42.782;23.108;2023-02-20T14:01:54;94558.16;;;9.67
62930;BMP280;49036;42.782;23.108;2023-02-20T14:04:22;94558.75;;;9.83
62930;BMP280;49036;42.782;23.108;2023-02-20T14:06:50;94573.50;;;9.85
62930;BMP280;49036;42.782;23.108;2023-02-20T14:09:20;94568.91;;;9.38
62930;BMP280;49036;42.782;23.108;2023-02-20T14:11:47;94571.53;;;9.11
62930;BMP280;49036;42.782;23.108;2023-02-20T14:14:27;94580.75;;;9.06
62930;BMP280;49036;42.782;23.108;2023-02-20T14:17:06;94582.75;;;9.13
62930;BMP280;49036;42.782;23.108;2023-02-20T14:19:37;94575.16;;;9.21
62930;BMP280;49036;42.782;23.108;2023-02-20T14:22:33;94580.63;;;9.54
62930;BMP280;49036;42.782;23.108;2023-02-20T14:27:38;94568.13;;;9.70
62930;BMP280;49036;42.782;23.108;2023-02-20T14:32:36;94562.91;;;9.91
62930;BMP280;49036;42.782;23.108;2023-02-20T14:35:14;94551.19;;;10.18
62930;BMP280;49036;42.782;23.108;2023-02-20T14:38:06;94553.66;;;10.58
62930;BMP280;49036;42.782;23.108;2023-02-20T14:40:40;94544.97;;;11.34
62930;BMP280;49036;42.782;23.108;2023-02-20T14:43:25;94549.75;;;11.71
62930;BMP280;49036;42.782;23.108;2023-02-20T14:46:05;94562.78;;;11.87
62930;BMP280;49036;42.782;23.108;2023-02-20T14:48:34;94565.72;;;11.89
62930;BMP280;49036;42.782;23.108;2023-02-20T14:51:23;94576.78;;;11.60
62930;BMP280;49036;42.782;23.108;2023-02-20T14:54:10;94588.06;;;11.62
62930;BMP280;49036;42.782;23.108;2023-02-20T14:56:40;94591.91;;;11.77
62930;BMP280;49036;42.782;23.108;2023-02-20T14:59:25;94604.06;;;11.81
62930;BMP280;49036;42.782;23.108;2023-02-20T15:01:54;94595.75;;;12.01
62930;BMP280;49036;42.782;23.108;2023-02-20T15:04:21;94597.81;;;11.54
62930;BMP280;49036;42.782;23.108;2023-02-20T15:06:49;94598.75;;;10.93
62930;BMP280;49036;42.782;23.108;2023-02-20T15:09:17;94607.06;;;10.14
62930;BMP280;49036;42.782;23.108;2023-02-20T15:11:54;94599.63;;;9.57
62930;BMP280;49036;42.782;23.108;2023-02-20T15:14:26;94603.78;;;9.16
62930;BMP280;49036;42.782;23.108;2023-02-20T15:19:39;94607.38;;;8.61
62930;BMP280;49036;42.782;23.108;2023-02-20T15:22:21;94614.66;;;8.41
62930;BMP280;49036;42.782;23.108;2023-02-20T15:24:47;94618.53;;;8.31
62930;BMP280;49036;42.782;23.108;2023-02-20T15:27:17;94625.38;;;8.14
62930;BMP280;49036;42.782;23.108;2023-02-20T15:29:46;94627.06;;;8.10
62930;BMP280;49036;42.782;23.108;2023-02-20T15:32:21;94634.94;;;8.36
62930;BMP280;49036;42.782;23.108;2023-02-20T15:34:55;94619.97;;;8.47
62930;BMP280;49036;42.782;23.108;2023-02-20T15:37:33;94627.75;;;8.26
62930;BMP280;49036;42.782;23.108;2023-02-20T15:40:28;94616.06;;;8.58
62930;BMP280;49036;42.782;23.108;2023-02-20T15:42:52;94624.56;;;8.44
62930;BMP280;49036;42.782;23.108;2023-02-20T15:45:28;94615.25;;;7.86
62930;BMP280;49036;42.782;23.108;2023-02-20T15:47:55;94623.75;;;7.50
62930;BMP280;49036;42.782;23.108;2023-02-20T15:50:20;94617.84;;;7.31
62930;BMP280;49036;42.782;23.108;2023-02-20T15:52:46;94616.31;;;7.15
62930;BMP280;49036;42.782;23.108;2023-02-20T15:55:17;94618.28;;;6.91
62930;BMP280;49036;42.782;23.108;2023-02-20T15:57:47;94617.88;;;6.80
62930;BMP280;49036;42.782;23.108;2023-02-20T16:00:27;94617.16;;;6.79
62930;BMP280;49036;42.782;23.108;2023-02-20T16:02:54;94616.03;;;6.82
62930;BMP280;49036;42.782;23.108;2023-02-20T16:05:21;94607.72;;;6.75
62930;BMP280;49036;42.782;23.108;2023-02-20T16:07:47;94609.00;;;6.74
62930;BMP280;49036;42.782;23.108;2023-02-20T16:10:17;94614.31;;;6.71
62930;BMP280;49036;42.782;23.108;2023-02-20T16:12:43;94599.41;;;6.59
62930;BMP280;49036;42.782;23.108;2023-02-20T16:15:14;94603.56;;;6.45
62930;BMP280;49036;42.782;23.108;2023-02-20T16:17:41;94617.78;;;6.28
62930;BMP280;49036;42.782;23.108;2023-02-20T16:20:15;94612.38;;;6.15
62930;BMP280;49036;42.782;23.108;2023-02-20T16:22:40;94597.19;;;6.01
62930;BMP280;49036;42.782;23.108;2023-02-20T16:25:06;94601.41;;;5.94
62930;BMP280;49036;42.782;23.108;2023-02-20T16:27:32;94603.19;;;5.84
62930;BMP280;49036;42.782;23.108;2023-02-20T16:29:58;94604.16;;;5.73